sensor_id;sensor_type;location;lat;lon;timestamp;P1;durP1;ratioP1;P2;durP2;ratioP2
3659;SDS011;1846;51.482;7.224;2023-06-10T00:02:23;8.40;;;7.47;;
3659;SDS011;1846;51.482;7.224;2023-06-10T00:04:50;7.63;;;6.90;;
3659;SDS011;1846;51.482;7.224;2023-06-10T00:07:19;8.10;;;7.07;;
3659;SDS011;1846;51.482;7.224;2023-06-10T00:09:45;9.55;;;7.20;;
3659;SDS011;1846;51.482;7.224;2023-06-10T00:12:12;11.70;;;7.53;;
3659;SDS011;1846;51.482;7.224;2023-06-10T00:14:40;7.55;;;6.85;;
3659;SDS011;1846;51.482;7.224;2023-06-10T00:17:07;8.10;;;7.35;;
3659;SDS011;1846;51.482;7.224;2023-06-10T00:19:35;8.90;;;7.60;;
3659;SDS011;1846;51.482;7.224;2023-06-10T00:22:03;8.32;;;7.40;;
3659;SDS011;1846;51.482;7.224;2023-06-10T00:24:31;8.60;;;7.90;;
3659;SDS011;1846;51.482;7.224;2023-06-10T00:26:58;14.50;;;7.40;;
3659;SDS011;1846;51.482;7.224;2023-06-10T00:29:25;10.60;;;7.10;;
3659;SDS011;1846;51.482;7.224;2023-06-10T00:31:52;8.57;;;7.87;;
3659;SDS011;1846;51.482;7.224;2023-06-10T00:34:22;8.25;;;7.55;;
3659;SDS011;1846;51.482;7.224;2023-06-10T00:36:49;10.77;;;7.47;;
3659;SDS011;1846;51.482;7.224;2023-06-10T00:39:16;8.35;;;7.38;;
3659;SDS011;1846;51.482;7.224;2023-06-10T00:41:44;8.90;;;8.00;;
3659;SDS011;1846;51.482;7.224;2023-06-10T00:44:11;8.68;;;7.50;;
3659;SDS011;1846;51.482;7.224;2023-06-10T00:46:38;7.95;;;7.25;;
3659;SDS011;1846;51.482;7.224;2023-06-10T00:49:05;8.90;;;6.90;;
3659;SDS011;1846;51.482;7.224;2023-06-10T00:51:33;9.98;;;8.15;;
3659;SDS011;1846;51.482;7.224;2023-06-10T00:54:01;8.30;;;7.50;;
3659;SDS011;1846;51.482;7.224;2023-06-10T00:56:31;8.63;;;7.47;;
3659;SDS011;1846;51.482;7.224;2023-06-10T00:59:01;9.43;;;8.45;;
3659;SDS011;1846;51.482;7.224;2023-06-10T01:01:28;14.50;;;6.90;;
3659;SDS011;1846;51.482;7.224;2023-06-10T01:03:55;7.60;;;7.10;;
3659;SDS011;1846;51.482;7.224;2023-06-10T01:06:25;8.00;;;7.30;;
3659;SDS011;1846;51.482;7.224;2023-06-10T01:09:04;10.67;;;7.57;;
3659;SDS011;1846;51.482;7.224;2023-06-10T01:11:52;9.15;;;8.25;;
3659;SDS011;1846;51.482;7.224;2023-06-10T01:14:26;10.48;;;7.85;;
3659;SDS011;1846;51.482;7.224;2023-06-10T01:16:56;8.85;;;7.82;;
3659;SDS011;1846;51.482;7.224;2023-06-10T01:19:25;10.48;;;7.60;;
3659;SDS011;1846;51.482;7.224;2023-06-10T01:21:54;9.93;;;8.80;;
3659;SDS011;1846;51.482;7.224;2023-06-10T01:24:21;12.13;;;8.32;;
3659;SDS011;1846;51.482;7.224;2023-06-10T01:26:49;9.57;;;8.57;;
3659;SDS011;1846;51.482;7.224;2023-06-10T01:29:19;9.60;;;8.70;;
3659;SDS011;1846;51.482;7.224;2023-06-10T01:31:51;16.00;;;9.50;;
3659;SDS011;1846;51.482;7.224;2023-06-10T01:34:26;10.93;;;9.00;;
3659;SDS011;1846;51.482;7.224;2023-06-10T01:36:55;10.80;;;8.55;;
3659;SDS011;1846;51.482;7.224;2023-06-10T01:39:26;9.70;;;8.70;;
3659;SDS011;1846;51.482;7.224;2023-06-10T01:41:53;12.07;;;8.95;;
3659;SDS011;1846;51.482;7.224;2023-06-10T01:44:22;12.10;;;8.73;;
3659;SDS011;1846;51.482;7.224;2023-06-10T01:46:49;9.80;;;8.80;;
3659;SDS011;1846;51.482;7.224;2023-06-10T01:49:16;9.38;;;8.27;;
3659;SDS011;1846;51.482;7.224;2023-06-10T01:51:43;12.90;;;8.90;;
3659;SDS011;1846;51.482;7.224;2023-06-10T01:54:11;10.90;;;9.77;;
3659;SDS011;1846;51.482;7.224;2023-06-10T01:56:38;11.55;;;9.93;;
3659;SDS011;1846;51.482;7.224;2023-06-10T01:59:05;12.27;;;9.18;;
3659;SDS011;1846;51.482;7.224;2023-06-10T02:01:32;11.32;;;8.70;;
3659;SDS011;1846;51.482;7.224;2023-06-10T02:03:59;9.82;;;8.82;;
3659;SDS011;1846;51.482;7.224;2023-06-10T02:06:26;12.13;;;9.32;;
3659;SDS011;1846;51.482;7.224;2023-06-10T02:08:53;11.43;;;9.93;;
3659;SDS011;1846;51.482;7.224;2023-06-10T02:11:22;9.70;;;8.80;;
3659;SDS011;1846;51.482;7.224;2023-06-10T02:13:49;15.13;;;10.23;;
3659;SDS011;1846;51.482;7.224;2023-06-10T02:16:15;14.88;;;10.73;;
3659;SDS011;1846;51.482;7.224;2023-06-10T02:18:43;12.93;;;10.90;;
3659;SDS011;1846;51.482;7.224;2023-06-10T02:21:11;11.65;;;10.45;;
3659;SDS011;1846;51.482;7.224;2023-06-10T02:23:38;11.93;;;10.80;;
3659;SDS011;1846;51.482;7.224;2023-06-10T02:26:05;12.75;;;10.00;;
3659;SDS011;1846;51.482;7.224;2023-06-10T02:28:33;11.18;;;10.10;;
3659;SDS011;1846;51.482;7.224;2023-06-10T02:31:00;12.35;;;11.25;;
3659;SDS011;1846;51.482;7.224;2023-06-10T02:33:27;13.10;;;11.00;;
3659;SDS011;1846;51.482;7.224;2023-06-10T02:35:54;11.85;;;10.70;;
3659;SDS011;1846;51.482;7.224;2023-06-10T02:38:21;15.17;;;11.90;;
3659;SDS011;1846;51.482;7.224;2023-06-10T02:40:48;12.27;;;10.98;;
3659;SDS011;1846;51.482;7.224;2023-06-10T02:43:15;12.10;;;10.90;;
3659;SDS011;1846;51.482;7.224;2023-06-10T02:45:43;13.52;;;11.77;;
3659;SDS011;1846;51.482;7.224;2023-06-10T02:48:10;13.73;;;11.60;;
3659;SDS011;1846;51.482;7.224;2023-06-10T02:50:37;12.40;;;11.13;;
3659;SDS011;1846;51.482;7.224;2023-06-10T02:53:05;14.02;;;12.70;;
3659;SDS011;1846;51.482;7.224;2023-06-10T02:55:33;13.45;;;11.93;;
3659;SDS011;1846;51.482;7.224;2023-06-10T02:58:00;13.60;;;12.17;;
3659;SDS011;1846;51.482;7.224;2023-06-10T03:00:27;14.23;;;12.70;;
3659;SDS011;1846;51.482;7.224;2023-06-10T03:02:56;16.40;;;13.77;;
3659;SDS011;1846;51.482;7.224;2023-06-10T03:05:23;15.87;;;12.60;;
3659;SDS011;1846;51.482;7.224;2023-06-10T03:07:50;13.85;;;12.55;;
3659;SDS011;1846;51.482;7.224;2023-06-10T03:10:17;13.80;;;12.30;;
3659;SDS011;1846;51.482;7.224;2023-06-10T03:12:43;17.30;;;12.80;;
3659;SDS011;1846;51.482;7.224;2023-06-10T03:15:10;14.10;;;12.60;;
3659;SDS011;1846;51.482;7.224;2023-06-10T03:17:38;14.07;;;12.68;;
3659;SDS011;1846;51.482;7.224;2023-06-10T03:20:07;14.00;;;12.23;;
3659;SDS011;1846;51.482;7.224;2023-06-10T03:22:35;16.77;;;13.27;;
3659;SDS011;1846;51.482;7.224;2023-06-10T03:25:03;15.07;;;13.43;;
3659;SDS011;1846;51.482;7.224;2023-06-10T03:27:31;14.77;;;13.25;;
3659;SDS011;1846;51.482;7.224;2023-06-10T03:29:58;15.30;;;13.70;;
3659;SDS011;1846;51.482;7.224;2023-06-10T03:32:24;14.80;;;13.30;;
3659;SDS011;1846;51.482;7.224;2023-06-10T03:34:51;15.55;;;14.05;;
3659;SDS011;1846;51.482;7.224;2023-06-10T03:37:23;14.83;;;13.23;;
3659;SDS011;1846;51.482;7.224;2023-06-10T03:39:50;18.90;;;14.02;;
3659;SDS011;1846;51.482;7.224;2023-06-10T03:42:16;15.90;;;14.20;;
3659;SDS011;1846;51.482;7.224;2023-06-10T03:44:43;13.87;;;12.47;;
3659;SDS011;1846;51.482;7.224;2023-06-10T03:47:10;18.15;;;14.20;;
3659;SDS011;1846;51.482;7.224;2023-06-10T03:49:38;16.13;;;13.73;;
3659;SDS011;1846;51.482;7.224;2023-06-10T03:52:05;16.83;;;13.10;;
3659;SDS011;1846;51.482;7.224;2023-06-10T03:54:34;15.88;;;14.18;;
3659;SDS011;1846;51.482;7.224;2023-06-10T03:57:01;14.00;;;12.07;;
3659;SDS011;1846;51.482;7.224;2023-06-10T03:59:28;15.93;;;14.07;;
3659;SDS011;1846;51.482;7.224;2023-06-10T04:01:55;19.03;;;14.60;;
3659;SDS011;1846;51.482;7.224;2023-06-10T04:04:22;15.10;;;13.70;;
3659;SDS011;1846;51.482;7.224;2023-06-10T04:06:49;16.10;;;14.23;;
3659;SDS011;1846;51.482;7.224;2023-06-10T04:09:16;14.97;;;13.33;;
3659;SDS011;1846;51.482;7.224;2023-06-10T04:11:45;16.00;;;12.50;;
3659;SDS011;1846;51.482;7.224;2023-06-10T04:14:13;13.80;;;12.43;;
3659;SDS011;1846;51.482;7.224;2023-06-10T04:16:40;14.13;;;12.02;;
3659;SDS011;1846;51.482;7.224;2023-06-10T04:19:07;15.07;;;12.65;;
3659;SDS011;1846;51.482;7.224;2023-06-10T04:21:34;12.63;;;11.33;;
3659;SDS011;1846;51.482;7.224;2023-06-10T04:24:02;12.68;;;11.38;;
3659;SDS011;1846;51.482;7.224;2023-06-10T04:26:29;14.13;;;11.30;;
3659;SDS011;1846;51.482;7.224;2023-06-10T04:28:57;13.25;;;11.90;;
3659;SDS011;1846;51.482;7.224;2023-06-10T04:31:24;17.30;;;10.63;;
3659;SDS011;1846;51.482;7.224;2023-06-10T04:33:51;11.23;;;10.05;;
3659;SDS011;1846;51.482;7.224;2023-06-10T04:36:18;12.80;;;11.10;;
3659;SDS011;1846;51.482;7.224;2023-06-10T04:38:45;13.18;;;11.23;;
3659;SDS011;1846;51.482;7.224;2023-06-10T04:41:12;16.80;;;11.25;;
3659;SDS011;1846;51.482;7.224;2023-06-10T04:43:39;13.48;;;10.32;;
3659;SDS011;1846;51.482;7.224;2023-06-10T04:46:07;15.65;;;12.35;;
3659;SDS011;1846;51.482;7.224;2023-06-10T04:48:35;10.40;;;9.30;;
3659;SDS011;1846;51.482;7.224;2023-06-10T04:51:02;11.98;;;10.32;;
3659;SDS011;1846;51.482;7.224;2023-06-10T04:53:30;12.77;;;9.70;;
3659;SDS011;1846;51.482;7.224;2023-06-10T04:55:57;11.70;;;10.50;;
3659;SDS011;1846;51.482;7.224;2023-06-10T04:58:27;13.27;;;10.10;;
3659;SDS011;1846;51.482;7.224;2023-06-10T05:00:54;12.40;;;10.30;;
3659;SDS011;1846;51.482;7.224;2023-06-10T05:03:22;11.25;;;9.75;;
3659;SDS011;1846;51.482;7.224;2023-06-10T05:05:49;11.02;;;9.88;;
3659;SDS011;1846;51.482;7.224;2023-06-10T05:08:16;12.50;;;9.13;;
3659;SDS011;1846;51.482;7.224;2023-06-10T05:10:43;11.27;;;10.18;;
3659;SDS011;1846;51.482;7.224;2023-06-10T05:13:09;11.50;;;9.88;;
3659;SDS011;1846;51.482;7.224;2023-06-10T05:15:36;11.10;;;9.27;;
3659;SDS011;1846;51.482;7.224;2023-06-10T05:18:03;10.30;;;9.30;;
3659;SDS011;1846;51.482;7.224;2023-06-10T05:20:31;10.70;;;9.60;;
3659;SDS011;1846;51.482;7.224;2023-06-10T05:22:58;9.80;;;8.90;;
3659;SDS011;1846;51.482;7.224;2023-06-10T05:25:25;11.38;;;8.70;;
3659;SDS011;1846;51.482;7.224;2023-06-10T05:27:53;14.25;;;9.05;;
3659;SDS011;1846;51.482;7.224;2023-06-10T05:30:20;10.48;;;8.15;;
3659;SDS011;1846;51.482;7.224;2023-06-10T05:32:47;9.85;;;8.95;;
3659;SDS011;1846;51.482;7.224;2023-06-10T05:35:16;7.80;;;7.00;;
3659;SDS011;1846;51.482;7.224;2023-06-10T05:37:44;10.83;;;8.60;;
3659;SDS011;1846;51.482;7.224;2023-06-10T05:40:11;12.15;;;9.02;;
3659;SDS011;1846;51.482;7.224;2023-06-10T05:42:38;10.23;;;8.43;;
3659;SDS011;1846;51.482;7.224;2023-06-10T05:45:05;8.73;;;7.93;;
3659;SDS011;1846;51.482;7.224;2023-06-10T05:47:33;9.98;;;8.20;;
3659;SDS011;1846;51.482;7.224;2023-06-10T05:50:00;8.93;;;8.03;;
3659;SDS011;1846;51.482;7.224;2023-06-10T05:52:27;8.50;;;7.53;;
3659;SDS011;1846;51.482;7.224;2023-06-10T05:54:55;8.95;;;7.55;;
3659;SDS011;1846;51.482;7.224;2023-06-10T05:57:22;9.40;;;8.45;;
3659;SDS011;1846;51.482;7.224;2023-06-10T05:59:49;8.20;;;7.50;;
3659;SDS011;1846;51.482;7.224;2023-06-10T06:02:16;8.80;;;7.85;;
3659;SDS011;1846;51.482;7.224;2023-06-10T06:04:42;10.10;;;7.70;;
3659;SDS011;1846;51.482;7.224;2023-06-10T06:07:09;11.67;;;7.50;;
3659;SDS011;1846;51.482;7.224;2023-06-10T06:09:36;12.30;;;8.30;;
3659;SDS011;1846;51.482;7.224;2023-06-10T06:12:05;8.48;;;7.55;;
3659;SDS011;1846;51.482;7.224;2023-06-10T06:14:36;7.88;;;7.07;;
3659;SDS011;1846;51.482;7.224;2023-06-10T06:17:04;9.80;;;6.90;;
3659;SDS011;1846;51.482;7.224;2023-06-10T06:19:31;11.53;;;6.97;;
3659;SDS011;1846;51.482;7.224;2023-06-10T06:21:58;8.00;;;6.65;;
3659;SDS011;1846;51.482;7.224;2023-06-10T06:24:25;9.10;;;6.55;;
3659;SDS011;1846;51.482;7.224;2023-06-10T06:26:51;9.25;;;7.57;;
3659;SDS011;1846;51.482;7.224;2023-06-10T06:29:20;10.93;;;7.15;;
3659;SDS011;1846;51.482;7.224;2023-06-10T06:31:47;7.90;;;7.10;;
3659;SDS011;1846;51.482;7.224;2023-06-10T06:34:13;6.53;;;5.93;;
3659;SDS011;1846;51.482;7.224;2023-06-10T06:36:41;7.00;;;6.20;;
3659;SDS011;1846;51.482;7.224;2023-06-10T06:39:08;6.72;;;6.00;;
3659;SDS011;1846;51.482;7.224;2023-06-10T06:41:34;6.37;;;5.87;;
3659;SDS011;1846;51.482;7.224;2023-06-10T06:44:01;7.25;;;5.75;;
3659;SDS011;1846;51.482;7.224;2023-06-10T06:46:30;9.50;;;6.20;;
3659;SDS011;1846;51.482;7.224;2023-06-10T06:48:56;22.00;;;7.40;;
3659;SDS011;1846;51.482;7.224;2023-06-10T06:51:23;7.70;;;6.40;;
3659;SDS011;1846;51.482;7.224;2023-06-10T06:53:50;8.05;;;6.28;;
3659;SDS011;1846;51.482;7.224;2023-06-10T06:56:19;7.75;;;6.22;;
3659;SDS011;1846;51.482;7.224;2023-06-10T06:58:46;7.37;;;6.47;;
3659;SDS011;1846;51.482;7.224;2023-06-10T07:01:13;11.27;;;6.60;;
3659;SDS011;1846;51.482;7.224;2023-06-10T07:03:42;10.27;;;7.13;;
3659;SDS011;1846;51.482;7.224;2023-06-10T07:06:09;6.32;;;5.72;;
3659;SDS011;1846;51.482;7.224;2023-06-10T07:08:36;6.53;;;5.90;;
3659;SDS011;1846;51.482;7.224;2023-06-10T07:11:03;8.75;;;6.20;;
3659;SDS011;1846;51.482;7.224;2023-06-10T07:13:30;7.53;;;6.82;;
3659;SDS011;1846;51.482;7.224;2023-06-10T07:15:56;10.93;;;6.40;;
3659;SDS011;1846;51.482;7.224;2023-06-10T07:18:24;7.15;;;6.10;;
3659;SDS011;1846;51.482;7.224;2023-06-10T07:20:52;11.32;;;6.28;;
3659;SDS011;1846;51.482;7.224;2023-06-10T07:23:19;7.22;;;6.35;;
3659;SDS011;1846;51.482;7.224;2023-06-10T07:25:46;7.40;;;5.43;;
3659;SDS011;1846;51.482;7.224;2023-06-10T07:28:13;6.20;;;5.68;;
3659;SDS011;1846;51.482;7.224;2023-06-10T07:30:39;7.43;;;5.63;;
3659;SDS011;1846;51.482;7.224;2023-06-10T07:33:06;8.40;;;5.50;;
3659;SDS011;1846;51.482;7.224;2023-06-10T07:35:35;7.05;;;6.35;;
3659;SDS011;1846;51.482;7.224;2023-06-10T07:38:03;5.90;;;5.30;;
3659;SDS011;1846;51.482;7.224;2023-06-10T07:40:30;6.55;;;5.80;;
3659;SDS011;1846;51.482;7.224;2023-06-10T07:42:57;7.85;;;5.20;;
3659;SDS011;1846;51.482;7.224;2023-06-10T07:45:24;11.00;;;5.50;;
3659;SDS011;1846;51.482;7.224;2023-06-10T07:47:51;6.53;;;5.50;;
3659;SDS011;1846;51.482;7.224;2023-06-10T07:50:18;11.07;;;6.43;;
3659;SDS011;1846;51.482;7.224;2023-06-10T07:52:45;8.85;;;5.07;;
3659;SDS011;1846;51.482;7.224;2023-06-10T07:55:13;7.68;;;5.20;;
3659;SDS011;1846;51.482;7.224;2023-06-10T07:57:40;6.20;;;5.32;;
3659;SDS011;1846;51.482;7.224;2023-06-10T08:00:08;5.50;;;4.85;;
3659;SDS011;1846;51.482;7.224;2023-06-10T08:02:37;7.68;;;5.45;;
3659;SDS011;1846;51.482;7.224;2023-06-10T08:05:04;5.55;;;5.10;;
3659;SDS011;1846;51.482;7.224;2023-06-10T08:07:31;5.88;;;4.88;;
3659;SDS011;1846;51.482;7.224;2023-06-10T08:09:58;8.27;;;4.97;;
3659;SDS011;1846;51.482;7.224;2023-06-10T08:12:26;5.38;;;4.88;;
3659;SDS011;1846;51.482;7.224;2023-06-10T08:14:53;5.10;;;4.30;;
3659;SDS011;1846;51.482;7.224;2023-06-10T08:17:20;5.20;;;4.70;;
3659;SDS011;1846;51.482;7.224;2023-06-10T08:19:47;6.47;;;4.43;;
3659;SDS011;1846;51.482;7.224;2023-06-10T08:22:14;5.82;;;4.50;;
3659;SDS011;1846;51.482;7.224;2023-06-10T08:24:41;5.43;;;4.50;;
3659;SDS011;1846;51.482;7.224;2023-06-10T08:27:08;4.95;;;4.45;;
3659;SDS011;1846;51.482;7.224;2023-06-10T08:29:37;6.30;;;4.90;;
3659;SDS011;1846;51.482;7.224;2023-06-10T08:32:04;6.93;;;5.50;;
3659;SDS011;1846;51.482;7.224;2023-06-10T08:34:33;5.18;;;4.57;;
3659;SDS011;1846;51.482;7.224;2023-06-10T08:37:00;5.45;;;4.95;;
3659;SDS011;1846;51.482;7.224;2023-06-10T08:39:27;5.70;;;4.70;;
3659;SDS011;1846;51.482;7.224;2023-06-10T08:41:59;5.30;;;4.80;;
3659;SDS011;1846;51.482;7.224;2023-06-10T08:44:36;5.78;;;4.40;;
3659;SDS011;1846;51.482;7.224;2023-06-10T08:47:06;5.88;;;4.50;;
3659;SDS011;1846;51.482;7.224;2023-06-10T08:49:40;6.32;;;4.70;;
3659;SDS011;1846;51.482;7.224;2023-06-10T08:52:09;7.97;;;4.32;;
3659;SDS011;1846;51.482;7.224;2023-06-10T08:54:40;6.50;;;4.78;;
3659;SDS011;1846;51.482;7.224;2023-06-10T08:57:09;5.15;;;4.65;;
3659;SDS011;1846;51.482;7.224;2023-06-10T08:59:38;6.45;;;4.60;;
3659;SDS011;1846;51.482;7.224;2023-06-10T09:02:05;5.30;;;4.75;;
3659;SDS011;1846;51.482;7.224;2023-06-10T09:04:36;7.00;;;4.72;;
3659;SDS011;1846;51.482;7.224;2023-06-10T09:07:03;5.95;;;4.47;;
3659;SDS011;1846;51.482;7.224;2023-06-10T09:09:31;6.93;;;4.95;;
3659;SDS011;1846;51.482;7.224;2023-06-10T09:12:01;6.30;;;4.72;;
3659;SDS011;1846;51.482;7.224;2023-06-10T09:14:28;5.72;;;5.28;;
3659;SDS011;1846;51.482;7.224;2023-06-10T09:16:56;6.60;;;5.33;;
3659;SDS011;1846;51.482;7.224;2023-06-10T09:19:23;6.03;;;4.93;;
3659;SDS011;1846;51.482;7.224;2023-06-10T09:21:51;6.07;;;4.82;;
3659;SDS011;1846;51.482;7.224;2023-06-10T09:24:18;4.67;;;4.30;;
3659;SDS011;1846;51.482;7.224;2023-06-10T09:26:45;6.65;;;4.40;;
3659;SDS011;1846;51.482;7.224;2023-06-10T09:29:12;16.58;;;5.05;;
3659;SDS011;1846;51.482;7.224;2023-06-10T09:31:39;5.53;;;5.03;;
3659;SDS011;1846;51.482;7.224;2023-06-10T09:34:09;6.57;;;5.40;;
3659;SDS011;1846;51.482;7.224;2023-06-10T09:36:37;4.93;;;4.60;;
3659;SDS011;1846;51.482;7.224;2023-06-10T09:39:05;5.50;;;5.00;;
3659;SDS011;1846;51.482;7.224;2023-06-10T09:41:41;5.95;;;4.95;;
3659;SDS011;1846;51.482;7.224;2023-06-10T09:44:10;7.47;;;5.05;;
3659;SDS011;1846;51.482;7.224;2023-06-10T09:46:39;7.72;;;5.28;;
3659;SDS011;1846;51.482;7.224;2023-06-10T09:49:08;5.30;;;4.57;;
3659;SDS011;1846;51.482;7.224;2023-06-10T09:51:35;5.57;;;4.70;;
3659;SDS011;1846;51.482;7.224;2023-06-10T09:54:02;4.80;;;4.40;;
3659;SDS011;1846;51.482;7.224;2023-06-10T09:56:33;5.30;;;4.80;;
3659;SDS011;1846;51.482;7.224;2023-06-10T09:59:01;6.15;;;4.95;;
3659;SDS011;1846;51.482;7.224;2023-06-10T10:01:30;5.63;;;5.03;;
3659;SDS011;1846;51.482;7.224;2023-06-10T10:03:58;5.80;;;5.22;;
3659;SDS011;1846;51.482;7.224;2023-06-10T10:06:26;6.50;;;5.13;;
3659;SDS011;1846;51.482;7.224;2023-06-10T10:08:54;6.32;;;5.13;;
3659;SDS011;1846;51.482;7.224;2023-06-10T10:11:22;5.80;;;4.95;;
3659;SDS011;1846;51.482;7.224;2023-06-10T10:13:51;5.65;;;5.15;;
3659;SDS011;1846;51.482;7.224;2023-06-10T10:16:19;6.20;;;4.90;;
3659;SDS011;1846;51.482;7.224;2023-06-10T10:18:49;5.07;;;4.53;;
3659;SDS011;1846;51.482;7.224;2023-06-10T10:21:22;8.52;;;5.00;;
3659;SDS011;1846;51.482;7.224;2023-06-10T10:23:57;5.28;;;4.78;;
3659;SDS011;1846;51.482;7.224;2023-06-10T10:26:31;11.52;;;5.50;;
3659;SDS011;1846;51.482;7.224;2023-06-10T10:29:03;5.90;;;5.40;;
3659;SDS011;1846;51.482;7.224;2023-06-10T10:31:35;5.10;;;4.70;;
3659;SDS011;1846;51.482;7.224;2023-06-10T10:34:06;9.40;;;5.30;;
3659;SDS011;1846;51.482;7.224;2023-06-10T10:36:35;5.10;;;4.70;;
3659;SDS011;1846;51.482;7.224;2023-06-10T10:39:04;6.32;;;5.38;;
3659;SDS011;1846;51.482;7.224;2023-06-10T10:41:32;6.10;;;5.60;;
3659;SDS011;1846;51.482;7.224;2023-06-10T10:44:00;15.73;;;5.90;;
3659;SDS011;1846;51.482;7.224;2023-06-10T10:46:30;6.30;;;5.10;;
3659;SDS011;1846;51.482;7.224;2023-06-10T10:49:07;5.40;;;4.90;;
3659;SDS011;1846;51.482;7.224;2023-06-10T10:51:35;7.15;;;5.30;;
3659;SDS011;1846;51.482;7.224;2023-06-10T10:54:13;6.45;;;5.20;;
3659;SDS011;1846;51.482;7.224;2023-06-10T10:56:45;5.97;;;5.37;;
3659;SDS011;1846;51.482;7.224;2023-06-10T10:59:45;5.50;;;5.00;;
3659;SDS011;1846;51.482;7.224;2023-06-10T11:02:32;7.18;;;5.13;;
3659;SDS011;1846;51.482;7.224;2023-06-10T11:05:01;5.40;;;5.00;;
3659;SDS011;1846;51.482;7.224;2023-06-10T11:07:29;6.53;;;4.93;;
3659;SDS011;1846;51.482;7.224;2023-06-10T11:10:00;15.40;;;5.30;;
3659;SDS011;1846;51.482;7.224;2023-06-10T11:15:18;5.45;;;4.90;;
3659;SDS011;1846;51.482;7.224;2023-06-10T11:20:52;5.78;;;5.28;;
3659;SDS011;1846;51.482;7.224;2023-06-10T11:23:24;5.65;;;5.15;;
3659;SDS011;1846;51.482;7.224;2023-06-10T11:26:12;5.82;;;5.32;;
3659;SDS011;1846;51.482;7.224;2023-06-10T11:28:40;5.55;;;5.15;;
3659;SDS011;1846;51.482;7.224;2023-06-10T11:31:08;6.10;;;5.00;;
3659;SDS011;1846;51.482;7.224;2023-06-10T11:33:44;5.28;;;4.90;;
3659;SDS011;1846;51.482;7.224;2023-06-10T11:36:13;6.17;;;5.67;;
3659;SDS011;1846;51.482;7.224;2023-06-10T11:38:40;6.18;;;5.63;;
3659;SDS011;1846;51.482;7.224;2023-06-10T11:41:07;6.10;;;5.70;;
3659;SDS011;1846;51.482;7.224;2023-06-10T11:43:35;5.10;;;4.80;;
3659;SDS011;1846;51.482;7.224;2023-06-10T11:46:03;8.57;;;5.28;;
3659;SDS011;1846;51.482;7.224;2023-06-10T11:48:33;5.10;;;4.70;;
3659;SDS011;1846;51.482;7.224;2023-06-10T11:51:00;5.40;;;5.00;;
3659;SDS011;1846;51.482;7.224;2023-06-10T11:53:30;5.70;;;5.20;;
3659;SDS011;1846;51.482;7.224;2023-06-10T11:55:56;5.78;;;5.28;;
3659;SDS011;1846;51.482;7.224;2023-06-10T11:58:24;7.63;;;5.03;;
3659;SDS011;1846;51.482;7.224;2023-06-10T12:00:53;5.30;;;4.80;;
3659;SDS011;1846;51.482;7.224;2023-06-10T12:03:23;5.90;;;5.40;;
3659;SDS011;1846;51.482;7.224;2023-06-10T12:05:56;6.97;;;5.68;;
3659;SDS011;1846;51.482;7.224;2023-06-10T12:08:25;7.80;;;4.63;;
3659;SDS011;1846;51.482;7.224;2023-06-10T12:10:52;5.40;;;4.70;;
3659;SDS011;1846;51.482;7.224;2023-06-10T12:13:20;9.27;;;5.38;;
3659;SDS011;1846;51.482;7.224;2023-06-10T12:15:48;7.35;;;5.40;;
3659;SDS011;1846;51.482;7.224;2023-06-10T12:18:17;5.57;;;4.97;;
3659;SDS011;1846;51.482;7.224;2023-06-10T12:20:44;7.50;;;4.60;;
3659;SDS011;1846;51.482;7.224;2023-06-10T12:23:12;7.60;;;5.78;;
3659;SDS011;1846;51.482;7.224;2023-06-10T12:25:43;5.85;;;5.30;;
3659;SDS011;1846;51.482;7.224;2023-06-10T12:28:16;5.13;;;4.80;;
3659;SDS011;1846;51.482;7.224;2023-06-10T12:30:46;6.10;;;5.50;;
3659;SDS011;1846;51.482;7.224;2023-06-10T12:33:18;7.47;;;5.70;;
3659;SDS011;1846;51.482;7.224;2023-06-10T12:35:48;5.93;;;5.40;;
3659;SDS011;1846;51.482;7.224;2023-06-10T12:38:20;5.80;;;5.40;;
3659;SDS011;1846;51.482;7.224;2023-06-10T12:40:49;5.60;;;5.10;;
3659;SDS011;1846;51.482;7.224;2023-06-10T12:43:19;5.90;;;5.30;;
3659;SDS011;1846;51.482;7.224;2023-06-10T12:45:46;7.10;;;5.30;;
3659;SDS011;1846;51.482;7.224;2023-06-10T12:48:19;5.90;;;5.40;;
3659;SDS011;1846;51.482;7.224;2023-06-10T12:50:49;6.05;;;5.53;;
3659;SDS011;1846;51.482;7.224;2023-06-10T12:53:17;6.05;;;5.75;;
3659;SDS011;1846;51.482;7.224;2023-06-10T12:55:45;6.10;;;5.60;;
3659;SDS011;1846;51.482;7.224;2023-06-10T12:58:12;6.07;;;5.53;;
3659;SDS011;1846;51.482;7.224;2023-06-10T13:00:39;6.80;;;5.78;;
3659;SDS011;1846;51.482;7.224;2023-06-10T13:03:07;6.22;;;5.72;;
3659;SDS011;1846;51.482;7.224;2023-06-10T13:05:37;11.30;;;6.43;;
3659;SDS011;1846;51.482;7.224;2023-06-10T13:08:04;9.32;;;7.18;;
3659;SDS011;1846;51.482;7.224;2023-06-10T13:10:32;8.68;;;6.10;;
3659;SDS011;1846;51.482;7.224;2023-06-10T13:13:03;9.82;;;6.38;;
3659;SDS011;1846;51.482;7.224;2023-06-10T13:15:34;7.43;;;6.20;;
3659;SDS011;1846;51.482;7.224;2023-06-10T13:18:02;6.85;;;6.07;;
3659;SDS011;1846;51.482;7.224;2023-06-10T13:20:30;5.80;;;5.30;;
3659;SDS011;1846;51.482;7.224;2023-06-10T13:22:58;7.93;;;6.32;;
3659;SDS011;1846;51.482;7.224;2023-06-10T13:25:25;6.55;;;5.95;;
3659;SDS011;1846;51.482;7.224;2023-06-10T13:27:52;7.10;;;6.40;;
3659;SDS011;1846;51.482;7.224;2023-06-10T13:30:19;7.88;;;6.35;;
3659;SDS011;1846;51.482;7.224;2023-06-10T13:32:46;8.43;;;6.03;;
3659;SDS011;1846;51.482;7.224;2023-06-10T13:35:13;7.53;;;5.35;;
3659;SDS011;1846;51.482;7.224;2023-06-10T13:37:40;6.25;;;5.60;;
3659;SDS011;1846;51.482;7.224;2023-06-10T13:40:09;6.68;;;5.80;;
3659;SDS011;1846;51.482;7.224;2023-06-10T13:42:37;6.50;;;5.95;;
3659;SDS011;1846;51.482;7.224;2023-06-10T13:45:04;8.73;;;6.20;;
3659;SDS011;1846;51.482;7.224;2023-06-10T13:47:34;6.75;;;6.15;;
3659;SDS011;1846;51.482;7.224;2023-06-10T13:50:01;6.47;;;5.87;;
3659;SDS011;1846;51.482;7.224;2023-06-10T13:52:28;6.68;;;6.00;;
3659;SDS011;1846;51.482;7.224;2023-06-10T13:54:55;6.00;;;5.50;;
3659;SDS011;1846;51.482;7.224;2023-06-10T13:57:23;6.33;;;5.83;;
3659;SDS011;1846;51.482;7.224;2023-06-10T13:59:50;6.97;;;6.28;;
3659;SDS011;1846;51.482;7.224;2023-06-10T14:02:17;6.50;;;5.90;;
3659;SDS011;1846;51.482;7.224;2023-06-10T14:04:45;6.87;;;6.20;;
3659;SDS011;1846;51.482;7.224;2023-06-10T14:07:12;6.78;;;6.20;;
3659;SDS011;1846;51.482;7.224;2023-06-10T14:09:38;6.30;;;5.80;;
3659;SDS011;1846;51.482;7.224;2023-06-10T14:12:06;93.85;;;10.75;;
3659;SDS011;1846;51.482;7.224;2023-06-10T14:14:35;6.70;;;6.20;;
3659;SDS011;1846;51.482;7.224;2023-06-10T14:17:02;6.45;;;5.85;;
3659;SDS011;1846;51.482;7.224;2023-06-10T14:19:30;7.80;;;6.05;;
3659;SDS011;1846;51.482;7.224;2023-06-10T14:21:57;7.80;;;6.07;;
3659;SDS011;1846;51.482;7.224;2023-06-10T14:24:24;6.32;;;5.80;;
3659;SDS011;1846;51.482;7.224;2023-06-10T14:26:51;6.50;;;6.00;;
3659;SDS011;1846;51.482;7.224;2023-06-10T14:29:17;5.65;;;5.15;;
3659;SDS011;1846;51.482;7.224;2023-06-10T14:31:47;6.70;;;6.00;;
3659;SDS011;1846;51.482;7.224;2023-06-10T14:34:14;8.02;;;5.85;;
3659;SDS011;1846;51.482;7.224;2023-06-10T14:36:40;7.80;;;6.50;;
3659;SDS011;1846;51.482;7.224;2023-06-10T14:39:07;7.13;;;6.53;;
3659;SDS011;1846;51.482;7.224;2023-06-10T14:41:34;6.40;;;5.80;;
3659;SDS011;1846;51.482;7.224;2023-06-10T14:44:01;7.15;;;6.10;;
3659;SDS011;1846;51.482;7.224;2023-06-10T14:46:28;6.50;;;6.00;;
3659;SDS011;1846;51.482;7.224;2023-06-10T14:48:56;6.15;;;5.55;;
3659;SDS011;1846;51.482;7.224;2023-06-10T14:51:24;6.60;;;6.00;;
3659;SDS011;1846;51.482;7.224;2023-06-10T14:53:51;6.60;;;6.00;;
3659;SDS011;1846;51.482;7.224;2023-06-10T14:56:18;6.80;;;6.10;;
3659;SDS011;1846;51.482;7.224;2023-06-10T14:58:45;7.00;;;6.30;;
3659;SDS011;1846;51.482;7.224;2023-06-10T15:01:12;7.10;;;6.38;;
3659;SDS011;1846;51.482;7.224;2023-06-10T15:03:39;5.68;;;5.32;;
3659;SDS011;1846;51.482;7.224;2023-06-10T15:06:07;6.28;;;5.82;;
3659;SDS011;1846;51.482;7.224;2023-06-10T15:08:34;6.53;;;5.72;;
3659;SDS011;1846;51.482;7.224;2023-06-10T15:11:01;6.43;;;5.82;;
3659;SDS011;1846;51.482;7.224;2023-06-10T15:13:28;6.38;;;5.88;;
3659;SDS011;1846;51.482;7.224;2023-06-10T15:15:55;5.80;;;5.40;;
3659;SDS011;1846;51.482;7.224;2023-06-10T15:18:22;6.20;;;5.70;;
3659;SDS011;1846;51.482;7.224;2023-06-10T15:20:49;10.87;;;5.87;;